»·PEaware :: N259DS KSMX-KSBA

N259DS :: KSMX-KSBA

FLIGHT INFORMATION

Flight Status: Arrived
Operator: Privately registered:
United States
More flights under this callsign
Pilot: Pratham R. (19019)
Aircraft: ROBIN DR-400
(DR40)
More flights by this aircraft type
Origin: KSMX Santa Maria Pub/Capt Hancock
United States
Destination: KSBA Santa Barbara Mun
United States
More flights between these airports :: More routes between these airports
Route: DCT
File this flight plan on PilotEdge
Remarks: VFR Flight
Altitude:
(Current/Filed)
5,500ft
Speed:
(Current/Filed)
127kts
Departed: 01-Sep-18 03:27 PM
Arrived: 01-Sep-18 03:51 PM
Distance/Time
Traveled:
42nm/0:24
Distance/Time
To Go:
Arrived

Flight Plot

Page will automatically refresh every two minutes.


Map Options




Map Legend


Flown Route
Filed Route
Departure Airport
Arrival Airport
Navaid (VOR, NDB)
Fix

Horizontal Profiles

Position Reports

Time Latitude Longitude Heading Altitude Ground
Speed
01-Sep-18 15:15 34.900416 -120.451150 239 264ft 0kts
01-Sep-18 15:17 34.900416 -120.451150 239 264ft 0kts
01-Sep-18 15:18 34.900416 -120.451150 239 264ft 0kts
01-Sep-18 15:18 34.900416 -120.451150 239 264ft 0kts
01-Sep-18 15:19 34.900416 -120.451150 239 264ft 0kts
01-Sep-18 15:20 34.900416 -120.451150 239 264ft 0kts
01-Sep-18 15:21 34.900416 -120.451150 239 264ft 0kts
01-Sep-18 15:22 34.900416 -120.451150 239 264ft 0kts
01-Sep-18 15:23 34.900416 -120.451150 239 264ft 0kts
01-Sep-18 15:24 34.900416 -120.451150 239 264ft 0kts
01-Sep-18 15:25 34.900158 -120.451255 155 264ft 9kts
01-Sep-18 15:26 34.895854 -120.446971 134 264ft 27kts
01-Sep-18 15:27 34.893125 -120.444970 188 264ft 2kts
01-Sep-18 15:28 34.898709 -120.453063 313 459ft 84kts
01-Sep-18 15:29 34.916681 -120.475154 309 1151ft 91kts
01-Sep-18 15:30 34.915041 -120.491117 149 1759ft 123kts
01-Sep-18 15:31 34.885941 -120.467569 147 2282ft 128kts
01-Sep-18 15:32 34.858442 -120.440927 130 2846ft 127kts
01-Sep-18 15:33 34.837193 -120.410998 130 3395ft 131kts
01-Sep-18 15:34 34.817602 -120.375602 101 3986ft 132kts
01-Sep-18 15:35 34.807836 -120.334792 126 4544ft 134kts
01-Sep-18 15:36 34.782104 -120.303354 135 5120ft 135kts
01-Sep-18 15:37 34.756103 -120.269586 135 5481ft 143kts
01-Sep-18 15:38 34.728837 -120.234007 136 5473ft 146kts
01-Sep-18 15:39 34.701674 -120.198597 136 5471ft 146kts
01-Sep-18 15:40 34.674475 -120.163167 136 5471ft 146kts
01-Sep-18 15:41 34.647494 -120.128054 136 5471ft 146kts
01-Sep-18 15:42 34.620344 -120.092758 136 5471ft 146kts
01-Sep-18 15:43 34.593003 -120.057252 136 5472ft 146kts
01-Sep-18 15:44 34.565401 -120.021443 136 5472ft 146kts
01-Sep-18 15:45 34.537812 -119.985647 137 5457ft 144kts
01-Sep-18 15:46 34.515917 -119.957313 140 4602ft 102kts
01-Sep-18 15:47 34.497023 -119.932955 139 3616ft 99kts
01-Sep-18 15:48 34.478838 -119.909474 137 2620ft 94kts
01-Sep-18 15:49 34.468942 -119.881091 100 1734ft 99kts
01-Sep-18 15:50 34.457770 -119.853025 144 830ft 90kts
01-Sep-18 15:51 34.436674 -119.843375 164 204ft 77kts
01-Sep-18 15:52 34.426676 -119.840023 98 13ft 0kts
01-Sep-18 15:53 34.426686 -119.838801 92 10ft 16kts
01-Sep-18 15:54 34.423020 -119.836585 83 10ft 12kts
01-Sep-18 15:55 34.423124 -119.836481 262 9ft 0kts
01-Sep-18 15:56 34.423124 -119.836481 262 9ft 0kts
01-Sep-18 15:57 34.423124 -119.836481 262 9ft 0kts
01-Sep-18 15:58 34.423124 -119.836481 262 9ft 0kts
01-Sep-18 15:59 34.423124 -119.836481 262 9ft 0kts
01-Sep-18 16:00 34.423124 -119.836481 262 9ft 0kts
01-Sep-18 16:01 34.423124 -119.836481 262 9ft 0kts
01-Sep-18 16:02 34.423124 -119.836481 262 9ft 0kts
01-Sep-18 16:03 34.423124 -119.836481 262 9ft 0kts
01-Sep-18 16:04 34.423124 -119.836481 262 9ft 0kts
01-Sep-18 16:05 34.423124 -119.836481 262 9ft 0kts
01-Sep-18 16:06 34.423124 -119.836481 262 9ft 0kts

Navigation Log

Ident Type
1. KSMX Airport
2. KSBA Airport